Time;durP1;ratioP1;P1;durP2;ratioP2;P2;SDS_P1;SDS_P2;PMS_P1;PMS_P2;Temp;Humidity;BMP_temperature;BMP_pressure;BME280_temperature;BME280_humidity;BME280_pressure;Samples;Min_cycle;Max_cycle;Signal;HPM_P1;HPM_P2
2023/04/25 00:01:26;;;;;;;2.03;1.30;;;;;;;;;;10364018;28;20121;-51
2023/04/25 00:06:27;;;;;;;1.63;1.38;;;;;;;;;;10365852;28;20371;-56
2023/04/25 00:11:27;;;;;;;1.30;1.20;;;;;;;;;;10369633;28;20029;-55
2023/04/25 00:16:30;;;;;;;2.50;1.42;;;;;;;;;;10371562;28;20026;-54
2023/04/25 00:21:33;;;;;;;2.47;1.30;;;;;;;;;;10364543;28;20018;-54
2023/04/25 00:26:35;;;;;;;2.08;1.50;;;;;;;;;;10364522;28;20030;-56
2023/04/25 00:31:36;;;;;;;2.28;1.38;;;;;;;;;;10364425;28;20040;-57
2023/04/25 00:36:36;;;;;;;1.60;1.27;;;;;;;;;;10364605;28;20389;-55
2023/04/25 00:41:38;;;;;;;3.08;1.20;;;;;;;;;;10364078;28;20029;-57
2023/04/25 00:46:39;;;;;;;1.58;1.20;;;;;;;;;;10366221;28;20026;-56
2023/04/25 00:51:40;;;;;;;1.58;1.40;;;;;;;;;;10372120;28;20093;-55
2023/04/25 00:56:41;;;;;;;2.97;1.40;;;;;;;;;;10370233;28;20466;-55
2023/04/25 01:01:42;;;;;;;2.05;1.40;;;;;;;;;;10358178;28;20040;-56
2023/04/25 01:06:43;;;;;;;1.52;1.30;;;;;;;;;;10371533;28;20026;-55
2023/04/25 01:11:43;;;;;;;3.70;1.23;;;;;;;;;;10370725;28;20037;-55
2023/04/25 01:16:44;;;;;;;1.85;1.30;;;;;;;;;;10372088;28;20026;-57
2023/04/25 01:21:45;;;;;;;0.90;0.90;;;;;;;;;;10370423;28;20030;-58
2023/04/25 01:26:49;;;;;;;1.52;1.30;;;;;;;;;;10352751;28;20025;-58
2023/04/25 01:31:52;;;;;;;1.20;1.10;;;;;;;;;;10352690;28;20029;-58
2023/04/25 01:36:53;;;;;;;2.40;1.20;;;;;;;;;;10370318;28;20033;-62
2023/04/25 01:41:54;;;;;;;1.45;1.35;;;;;;;;;;10368922;28;20096;-58
2023/04/25 01:47:15;;;;;;;1.55;1.05;;;;;;;;;;10369301;28;20033;-58
2023/04/25 01:52:15;;;;;;;2.00;1.05;;;;;;;;;;10242243;28;20122;-58
2023/04/25 01:57:16;;;;;;;1.63;1.20;;;;;;;;;;10241625;28;20090;-57
2023/04/25 02:02:17;;;;;;;1.83;1.23;;;;;;;;;;10248592;28;20031;-59
2023/04/25 02:07:17;;;;;;;3.35;1.20;;;;;;;;;;10247867;28;20054;-59
2023/04/25 02:12:18;;;;;;;3.10;1.10;;;;;;;;;;10242790;28;20387;-54
2023/04/25 02:17:18;;;;;;;2.72;1.30;;;;;;;;;;10241890;28;20047;-54
2023/04/25 02:22:19;;;;;;;1.20;1.10;;;;;;;;;;10241932;28;20050;-55
2023/04/25 02:27:19;;;;;;;8.77;1.65;;;;;;;;;;10273889;28;20046;-65
2023/04/25 02:32:20;;;;;;;4.85;1.25;;;;;;;;;;10368102;28;20026;-60
2023/04/25 02:37:20;;;;;;;1.55;1.38;;;;;;;;;;10367632;28;20026;-64
2023/04/25 02:42:21;;;;;;;5.07;1.30;;;;;;;;;;10355902;28;20018;-64
2023/04/25 02:47:22;;;;;;;1.48;0.90;;;;;;;;;;10367856;28;20087;-55
2023/04/25 02:52:22;;;;;;;1.58;1.20;;;;;;;;;;10364171;28;20052;-62
2023/04/25 02:57:23;;;;;;;1.00;1.00;;;;;;;;;;10368114;28;20022;-64
2023/04/25 03:02:23;;;;;;;1.98;1.10;;;;;;;;;;10380073;28;20029;-65
2023/04/25 03:07:24;;;;;;;1.60;1.17;;;;;;;;;;10367673;28;20034;-64
2023/04/25 03:12:25;;;;;;;0.98;0.90;;;;;;;;;;10366451;28;20034;-65
2023/04/25 03:17:25;;;;;;;1.27;0.93;;;;;;;;;;10367102;28;20026;-65
2023/04/25 03:22:26;;;;;;;2.20;1.08;;;;;;;;;;10366758;28;20355;-65
2023/04/25 03:27:27;;;;;;;1.13;1.02;;;;;;;;;;10365257;28;20040;-63
2023/04/25 03:32:27;;;;;;;1.27;0.90;;;;;;;;;;10366337;28;20026;-65
2023/04/25 03:37:28;;;;;;;1.20;1.10;;;;;;;;;;10365886;28;20018;-64
2023/04/25 03:42:28;;;;;;;2.03;1.02;;;;;;;;;;10364952;28;20052;-63
2023/04/25 03:47:29;;;;;;;1.67;1.23;;;;;;;;;;10365576;28;20029;-65
2023/04/25 03:52:29;;;;;;;1.10;1.00;;;;;;;;;;10364506;28;20115;-65
2023/04/25 03:57:30;;;;;;;2.60;1.17;;;;;;;;;;10364346;28;20025;-65
2023/04/25 04:02:31;;;;;;;3.17;1.02;;;;;;;;;;10365776;28;20044;-65
2023/04/25 04:07:32;;;;;;;1.30;1.20;;;;;;;;;;10377033;28;20028;-63
2023/04/25 04:12:33;;;;;;;1.27;1.17;;;;;;;;;;10365035;28;20022;-64
2023/04/25 04:17:34;;;;;;;1.48;0.90;;;;;;;;;;10376829;28;20076;-65
2023/04/25 04:22:36;;;;;;;1.23;1.13;;;;;;;;;;10363674;28;20109;-63
2023/04/25 04:27:36;;;;;;;1.25;1.10;;;;;;;;;;10363389;28;20076;-53
2023/04/25 04:32:37;;;;;;;1.27;1.00;;;;;;;;;;10364366;28;20387;-53
2023/04/25 04:37:37;;;;;;;1.42;1.00;;;;;;;;;;10364175;28;20038;-56
2023/04/25 04:42:38;;;;;;;2.95;1.13;;;;;;;;;;10363932;28;20478;-53
2023/04/25 04:47:39;;;;;;;1.42;1.33;;;;;;;;;;10363812;28;20042;-53
2023/04/25 04:52:40;;;;;;;3.13;1.30;;;;;;;;;;10363400;28;20050;-58
2023/04/25 04:57:40;;;;;;;1.52;1.15;;;;;;;;;;10377258;28;20052;-64
2023/04/25 05:02:41;;;;;;;2.00;1.30;;;;;;;;;;10363108;28;20030;-66
2023/04/25 05:07:42;;;;;;;1.17;1.00;;;;;;;;;;10363362;28;20045;-64
2023/04/25 05:12:42;;;;;;;1.27;1.00;;;;;;;;;;10363703;28;20022;-61
2023/04/25 05:17:43;;;;;;;1.45;1.20;;;;;;;;;;10363119;28;20030;-60
2023/04/25 05:22:43;;;;;;;1.73;1.10;;;;;;;;;;10345279;28;20481;-65
2023/04/25 05:27:44;;;;;;;1.15;0.90;;;;;;;;;;10363668;28;20491;-62
2023/04/25 05:32:46;;;;;;;4.03;1.27;;;;;;;;;;10367091;28;20029;-64
2023/04/25 05:37:47;;;;;;;1.10;1.00;;;;;;;;;;10390488;28;20042;-57
2023/04/25 05:42:47;;;;;;;1.10;1.00;;;;;;;;;;10366946;28;20022;-66
2023/04/25 05:47:48;;;;;;;2.90;1.10;;;;;;;;;;10359150;28;20033;-62
2023/04/25 05:52:50;;;;;;;0.90;0.90;;;;;;;;;;10386492;28;20044;-64
2023/04/25 05:57:50;;;;;;;1.85;1.05;;;;;;;;;;10366650;28;20034;-63
2023/04/25 06:02:51;;;;;;;1.60;1.00;;;;;;;;;;10369440;28;20026;-57
2023/04/25 06:07:51;;;;;;;1.00;1.00;;;;;;;;;;10364781;28;20033;-57
2023/04/25 06:12:52;;;;;;;1.27;1.02;;;;;;;;;;10371845;28;20022;-52
2023/04/25 06:17:53;;;;;;;1.52;1.17;;;;;;;;;;10368784;28;20228;-55
2023/04/25 06:22:53;;;;;;;1.20;1.08;;;;;;;;;;10367776;28;20486;-53
2023/04/25 06:27:54;;;;;;;1.83;1.30;;;;;;;;;;10378568;28;20418;-57
2023/04/25 06:32:55;;;;;;;4.22;1.20;;;;;;;;;;10365218;28;20030;-58
2023/04/25 06:37:55;;;;;;;15.25;1.40;;;;;;;;;;10363014;28;20042;-55
2023/04/25 06:42:56;;;;;;;9.80;1.52;;;;;;;;;;10366844;28;20045;-57
2023/04/25 06:47:56;;;;;;;5.38;1.40;;;;;;;;;;10356657;28;20033;-55
2023/04/25 06:52:57;;;;;;;3.78;1.48;;;;;;;;;;10367449;28;20045;-63
2023/04/25 06:57:57;;;;;;;2.00;1.60;;;;;;;;;;10357712;28;20046;-56
2023/04/25 07:02:58;;;;;;;4.28;1.40;;;;;;;;;;10353721;28;20022;-53
2023/04/25 07:07:59;;;;;;;2.33;1.63;;;;;;;;;;10366285;28;20552;-55
2023/04/25 07:13:00;;;;;;;4.40;1.60;;;;;;;;;;10352621;28;20108;-61
2023/04/25 07:18:00;;;;;;;2.63;1.65;;;;;;;;;;10368428;28;20049;-58
2023/04/25 07:23:01;;;;;;;3.10;1.60;;;;;;;;;;10369279;28;20026;-53
2023/04/25 07:28:01;;;;;;;4.93;1.80;;;;;;;;;;10366931;28;20041;-56
2023/04/25 07:33:02;;;;;;;6.88;1.60;;;;;;;;;;10374601;28;20033;-61
2023/04/25 07:38:03;;;;;;;8.82;1.73;;;;;;;;;;10355232;28;20030;-50
2023/04/25 07:43:04;;;;;;;3.13;1.75;;;;;;;;;;10358430;28;20019;-50
2023/04/25 07:48:04;;;;;;;3.22;1.40;;;;;;;;;;10360293;28;20041;-53
2023/04/25 07:53:05;;;;;;;4.28;1.65;;;;;;;;;;10356396;28;20042;-53
2023/04/25 07:58:07;;;;;;;3.80;1.90;;;;;;;;;;10328941;28;20069;-53
2023/04/25 08:03:09;;;;;;;2.75;1.70;;;;;;;;;;10354579;28;20018;-56
2023/04/25 08:08:10;;;;;;;5.65;1.75;;;;;;;;;;10362172;28;20026;-57
2023/04/25 08:13:10;;;;;;;3.20;1.70;;;;;;;;;;10364328;28;20026;-56
2023/04/25 08:18:11;;;;;;;5.07;1.70;;;;;;;;;;10363455;28;20030;-54
2023/04/25 08:23:13;;;;;;;8.07;1.70;;;;;;;;;;10349436;28;20026;-59
2023/04/25 08:28:14;;;;;;;4.43;1.52;;;;;;;;;;10358788;28;20393;-57
2023/04/25 08:33:15;;;;;;;4.70;2.05;;;;;;;;;;10357948;28;20033;-58
2023/04/25 08:38:16;;;;;;;5.03;1.92;;;;;;;;;;10361861;28;20026;-59
2023/04/25 08:43:19;;;;;;;7.00;2.20;;;;;;;;;;10361762;28;20088;-57
2023/04/25 08:48:21;;;;;;;4.40;1.50;;;;;;;;;;10350300;28;20030;-57
2023/04/25 08:53:27;;;;;;;6.25;1.77;;;;;;;;;;10355777;28;20044;-57
2023/04/25 08:58:29;;;;;;;5.65;1.55;;;;;;;;;;10346148;28;20030;-60
2023/04/25 09:03:29;;;;;;;6.07;1.67;;;;;;;;;;10360354;28;20062;-60
2023/04/25 09:08:30;;;;;;;3.20;1.67;;;;;;;;;;10351490;28;20497;-60
2023/04/25 09:13:31;;;;;;;4.88;1.73;;;;;;;;;;10367328;28;20025;-59
2023/04/25 09:18:34;;;;;;;5.57;1.77;;;;;;;;;;10356355;28;20049;-60
2023/04/25 09:23:47;;;;;;;5.25;1.75;;;;;;;;;;10353052;28;20022;-61
2023/04/25 09:28:48;;;;;;;4.90;1.83;;;;;;;;;;10353976;28;20406;-54
2023/04/25 09:33:49;;;;;;;3.40;1.80;;;;;;;;;;10361133;28;20030;-55
2023/04/25 09:38:50;;;;;;;4.50;2.17;;;;;;;;;;10363930;28;20033;-55
2023/04/25 09:43:51;;;;;;;2.65;1.65;;;;;;;;;;10363995;28;20026;-55
2023/04/25 09:48:53;;;;;;;2.35;1.60;;;;;;;;;;10363371;28;20026;-55
2023/04/25 09:53:54;;;;;;;2.58;1.50;;;;;;;;;;10362569;28;20037;-53
2023/04/25 09:58:55;;;;;;;1.85;1.55;;;;;;;;;;10366694;28;20033;-55
2023/04/25 10:03:57;;;;;;;1.50;1.40;;;;;;;;;;10352449;28;20033;-59
2023/04/25 10:08:58;;;;;;;3.30;1.60;;;;;;;;;;10348872;28;20030;-61
2023/04/25 10:14:00;;;;;;;1.48;1.38;;;;;;;;;;10336768;28;20029;-60
2023/04/25 10:19:02;;;;;;;1.63;1.52;;;;;;;;;;10347425;28;20030;-59
2023/04/25 10:24:03;;;;;;;1.38;1.27;;;;;;;;;;10361220;28;20045;-57
2023/04/25 10:29:04;;;;;;;1.60;1.50;;;;;;;;;;10344184;28;20076;-58
2023/04/25 10:34:05;;;;;;;6.55;1.60;;;;;;;;;;10365750;28;20470;-57
2023/04/25 10:39:08;;;;;;;2.30;1.30;;;;;;;;;;10364127;28;20456;-58
2023/04/25 10:44:09;;;;;;;2.33;1.52;;;;;;;;;;10359641;28;20033;-57
2023/04/25 10:49:10;;;;;;;2.03;1.40;;;;;;;;;;10365712;28;20038;-57
2023/04/25 10:54:11;;;;;;;1.67;1.50;;;;;;;;;;10371912;28;20045;-56
2023/04/25 10:59:15;;;;;;;4.50;1.90;;;;;;;;;;10354267;28;20389;-57
2023/04/25 11:04:28;;;;;;;2.70;1.85;;;;;;;;;;10354290;28;20026;-52
2023/04/25 11:09:29;;;;;;;8.73;1.77;;;;;;;;;;10360883;28;20021;-61
2023/04/25 11:14:30;;;;;;;1.80;1.30;;;;;;;;;;10359659;28;20025;-58
2023/04/25 11:19:31;;;;;;;1.30;1.20;;;;;;;;;;10355832;28;20037;-60
2023/04/25 11:24:35;;;;;;;1.30;1.20;;;;;;;;;;10348039;28;20696;-57
2023/04/25 11:29:36;;;;;;;2.92;1.33;;;;;;;;;;10359253;28;20162;-58
2023/04/25 11:34:36;;;;;;;1.88;1.30;;;;;;;;;;10366399;28;20221;-54
2023/04/25 11:39:37;;;;;;;1.40;1.30;;;;;;;;;;10362803;28;20030;-55
2023/04/25 11:44:40;;;;;;;1.30;1.17;;;;;;;;;;10349864;28;20045;-55
2023/04/25 11:49:41;;;;;;;1.30;1.20;;;;;;;;;;10359499;28;20394;-55
2023/04/25 11:54:44;;;;;;;1.23;1.13;;;;;;;;;;10356061;28;20104;-54
2023/04/25 11:59:45;;;;;;;1.10;1.00;;;;;;;;;;10359304;28;20034;-54
2023/04/25 12:04:46;;;;;;;1.75;1.17;;;;;;;;;;10361479;28;20041;-54
2023/04/25 12:09:53;;;;;;;2.55;1.40;;;;;;;;;;10337883;28;20073;-54
2023/04/25 12:14:55;;;;;;;1.30;1.20;;;;;;;;;;10353155;28;20609;-55
2023/04/25 12:19:55;;;;;;;1.90;1.33;;;;;;;;;;10349104;28;20030;-56
2023/04/25 12:24:58;;;;;;;2.25;1.60;;;;;;;;;;10362924;28;20469;-54
2023/04/25 12:29:59;;;;;;;3.50;1.38;;;;;;;;;;10362975;28;20112;-54
2023/04/25 12:34:59;;;;;;;1.55;1.10;;;;;;;;;;10355760;28;20041;-55
2023/04/25 12:40:00;;;;;;;1.27;1.10;;;;;;;;;;10337748;28;20038;-55
2023/04/25 12:45:01;;;;;;;1.10;1.10;;;;;;;;;;10358558;28;20033;-61
2023/04/25 12:50:01;;;;;;;1.48;1.10;;;;;;;;;;10365636;28;20038;-61
2023/04/25 12:55:03;;;;;;;2.22;1.30;;;;;;;;;;10362218;28;20196;-62
2023/04/25 13:00:07;;;;;;;1.00;1.00;;;;;;;;;;10371086;28;20034;-62
2023/04/25 13:05:08;;;;;;;2.53;1.00;;;;;;;;;;10366114;28;20038;-60
2023/04/25 13:10:09;;;;;;;4.03;1.30;;;;;;;;;;10371262;28;20045;-55
2023/04/25 13:15:11;;;;;;;2.15;1.50;;;;;;;;;;10367738;28;20044;-55
2023/04/25 13:20:11;;;;;;;1.33;1.23;;;;;;;;;;10361544;28;20041;-56
2023/04/25 13:25:12;;;;;;;4.03;1.13;;;;;;;;;;10369993;28;20030;-57
2023/04/25 13:30:13;;;;;;;1.30;1.20;;;;;;;;;;10362654;28;20405;-54
2023/04/25 13:35:14;;;;;;;2.35;1.38;;;;;;;;;;10359471;28;20021;-53
2023/04/25 13:40:14;;;;;;;3.85;1.30;;;;;;;;;;10353705;28;20034;-55
2023/04/25 13:45:15;;;;;;;4.55;1.40;;;;;;;;;;10364154;28;20489;-54
2023/04/25 13:50:16;;;;;;;12.48;1.92;;;;;;;;;;10370927;28;20543;-51
2023/04/25 13:55:17;;;;;;;24.85;1.92;;;;;;;;;;10365165;28;20077;-59
2023/04/25 14:00:18;;;;;;;7.63;1.85;;;;;;;;;;10368794;28;20161;-59
2023/04/25 14:05:19;;;;;;;6.47;1.92;;;;;;;;;;10366077;28;20116;-58
2023/04/25 14:10:19;;;;;;;2.78;1.17;;;;;;;;;;10358225;28;20038;-59
2023/04/25 14:15:20;;;;;;;1.42;1.02;;;;;;;;;;10366179;28;20332;-59
2023/04/25 14:20:21;;;;;;;1.25;1.15;;;;;;;;;;10362669;28;20034;-60
2023/04/25 14:25:22;;;;;;;1.52;1.00;;;;;;;;;;10367896;28;20033;-61
2023/04/25 14:30:23;;;;;;;2.53;1.52;;;;;;;;;;10364779;28;20037;-63
2023/04/25 14:35:23;;;;;;;1.30;1.20;;;;;;;;;;10376668;28;20425;-62
2023/04/25 14:40:26;;;;;;;1.30;1.20;;;;;;;;;;10366819;28;20025;-63
2023/04/25 14:45:27;;;;;;;1.33;1.23;;;;;;;;;;10359726;28;20417;-62
2023/04/25 14:50:27;;;;;;;1.63;1.40;;;;;;;;;;10341882;28;21556;-61
2023/04/25 14:55:28;;;;;;;1.55;1.35;;;;;;;;;;10361310;28;20045;-62
2023/04/25 15:00:30;;;;;;;2.60;1.48;;;;;;;;;;10363496;28;20038;-60
2023/04/25 15:05:30;;;;;;;2.13;1.10;;;;;;;;;;10363872;28;20034;-62
2023/04/25 15:10:31;;;;;;;1.50;1.40;;;;;;;;;;10365273;28;20057;-62
2023/04/25 15:15:32;;;;;;;1.50;1.40;;;;;;;;;;10356806;28;20490;-59
2023/04/25 15:20:32;;;;;;;1.60;1.40;;;;;;;;;;10364767;28;20663;-59
2023/04/25 15:25:34;;;;;;;2.25;1.23;;;;;;;;;;10363373;28;20080;-59
2023/04/25 15:30:35;;;;;;;1.27;1.17;;;;;;;;;;10357052;28;20045;-58
2023/04/25 15:35:35;;;;;;;3.33;1.20;;;;;;;;;;10353841;28;20030;-58
2023/04/25 15:40:36;;;;;;;3.60;1.45;;;;;;;;;;10347605;28;20018;-58
2023/04/25 15:45:37;;;;;;;3.42;1.33;;;;;;;;;;10355596;28;20096;-61
2023/04/25 15:50:37;;;;;;;3.35;1.35;;;;;;;;;;10350553;28;20038;-60
2023/04/25 15:55:38;;;;;;;2.08;1.15;;;;;;;;;;10333636;28;20072;-57
2023/04/25 16:00:39;;;;;;;2.80;1.25;;;;;;;;;;10355687;28;20037;-58
2023/04/25 16:06:00;;;;;;;3.00;1.08;;;;;;;;;;10361079;28;20081;-58
2023/04/25 16:11:02;;;;;;;2.42;1.05;;;;;;;;;;10238852;28;20561;-60
2023/04/25 16:16:02;;;;;;;4.32;1.40;;;;;;;;;;10241107;28;20081;-57
2023/04/25 16:21:03;;;;;;;1.85;1.00;;;;;;;;;;10239738;28;20507;-60
2023/04/25 16:26:03;;;;;;;2.88;1.15;;;;;;;;;;10238435;28;20510;-58
2023/04/25 16:31:05;;;;;;;2.75;1.40;;;;;;;;;;10225962;28;20035;-58
2023/04/25 16:36:06;;;;;;;2.30;1.40;;;;;;;;;;10225875;28;20066;-57
2023/04/25 16:41:07;;;;;;;1.20;1.00;;;;;;;;;;10239208;28;20124;-58
2023/04/25 16:46:07;;;;;;;1.65;1.30;;;;;;;;;;10276218;28;20053;-60
2023/04/25 16:51:08;;;;;;;2.58;1.20;;;;;;;;;;10368789;28;20058;-57
2023/04/25 16:56:09;;;;;;;4.30;1.27;;;;;;;;;;10353699;28;20430;-57
2023/04/25 17:01:10;;;;;;;1.42;1.10;;;;;;;;;;10348170;28;20037;-58
2023/04/25 17:06:11;;;;;;;1.13;1.02;;;;;;;;;;10350034;28;20371;-58
2023/04/25 17:11:12;;;;;;;5.35;1.58;;;;;;;;;;10359022;28;20096;-58
2023/04/25 17:16:15;;;;;;;6.85;1.30;;;;;;;;;;10354781;28;20080;-60
2023/04/25 17:21:16;;;;;;;3.88;1.45;;;;;;;;;;10361212;28;20057;-58
2023/04/25 17:26:17;;;;;;;10.85;1.45;;;;;;;;;;10361779;28;20030;-60
2023/04/25 17:31:18;;;;;;;4.65;1.50;;;;;;;;;;10368314;28;20080;-57
2023/04/25 17:36:18;;;;;;;5.35;1.83;;;;;;;;;;10368766;28;20030;-62
2023/04/25 17:41:19;;;;;;;7.38;1.50;;;;;;;;;;10369110;28;20386;-58
2023/04/25 17:46:20;;;;;;;3.00;1.60;;;;;;;;;;10376816;28;20221;-58
2023/04/25 17:51:20;;;;;;;5.88;1.73;;;;;;;;;;10369251;28;20497;-61
2023/04/25 17:56:21;;;;;;;4.50;1.50;;;;;;;;;;10369505;28;20479;-57
2023/04/25 18:01:22;;;;;;;3.05;1.48;;;;;;;;;;10367019;28;20057;-58
2023/04/25 18:06:22;;;;;;;3.75;1.65;;;;;;;;;;10362620;28;20034;-57
2023/04/25 18:11:23;;;;;;;2.67;1.30;;;;;;;;;;10352289;28;20375;-57
2023/04/25 18:16:24;;;;;;;3.95;1.58;;;;;;;;;;10362237;28;20512;-57
2023/04/25 18:21:25;;;;;;;3.65;1.70;;;;;;;;;;10371225;28;20033;-57
2023/04/25 18:26:25;;;;;;;3.33;1.73;;;;;;;;;;10368630;28;20034;-58
2023/04/25 18:31:27;;;;;;;3.95;1.75;;;;;;;;;;10367279;28;20075;-57
2023/04/25 18:36:27;;;;;;;4.22;1.67;;;;;;;;;;10350660;28;20029;-60
2023/04/25 18:41:28;;;;;;;3.13;1.70;;;;;;;;;;10367534;28;20072;-58
2023/04/25 18:46:30;;;;;;;2.88;1.33;;;;;;;;;;10360763;28;20101;-56
2023/04/25 18:51:31;;;;;;;2.90;1.60;;;;;;;;;;10367365;28;20120;-57
2023/04/25 18:56:31;;;;;;;3.22;1.55;;;;;;;;;;10367384;28;20021;-56
2023/04/25 19:01:33;;;;;;;4.07;1.85;;;;;;;;;;10353604;28;20026;-57
2023/04/25 19:06:33;;;;;;;2.58;1.52;;;;;;;;;;10365981;28;20030;-57
2023/04/25 19:11:34;;;;;;;3.17;1.40;;;;;;;;;;10364111;28;20036;-57
2023/04/25 19:16:38;;;;;;;5.93;1.80;;;;;;;;;;10356637;28;20022;-56
2023/04/25 19:21:40;;;;;;;5.97;1.50;;;;;;;;;;10353074;28;20436;-57
2023/04/25 19:26:41;;;;;;;3.33;1.60;;;;;;;;;;10369131;28;20366;-57
2023/04/25 19:31:43;;;;;;;3.40;1.60;;;;;;;;;;10361924;28;20029;-57
2023/04/25 19:36:44;;;;;;;3.47;1.58;;;;;;;;;;10365775;28;20429;-58
2023/04/25 19:41:45;;;;;;;5.05;1.80;;;;;;;;;;10365756;28;20029;-58
2023/04/25 19:46:47;;;;;;;2.80;1.42;;;;;;;;;;10358342;28;20033;-59
2023/04/25 19:51:48;;;;;;;4.85;1.20;;;;;;;;;;10365451;28;20458;-59
2023/04/25 19:56:48;;;;;;;2.92;1.95;;;;;;;;;;10365531;28;20084;-58
2023/04/25 20:01:49;;;;;;;3.28;1.60;;;;;;;;;;10348113;28;20052;-58
2023/04/25 20:06:50;;;;;;;4.50;1.42;;;;;;;;;;10364839;28;20354;-57
2023/04/25 20:11:51;;;;;;;1.55;1.40;;;;;;;;;;10364833;28;20332;-58
2023/04/25 20:16:52;;;;;;;5.03;1.63;;;;;;;;;;10366037;28;20037;-58
2023/04/25 20:21:53;;;;;;;2.90;1.33;;;;;;;;;;10364934;28;20482;-58
2023/04/25 20:26:55;;;;;;;3.20;1.60;;;;;;;;;;10364460;28;20022;-58
2023/04/25 20:31:55;;;;;;;1.58;1.33;;;;;;;;;;10364794;28;20049;-58
2023/04/25 20:36:56;;;;;;;6.75;1.45;;;;;;;;;;10365444;28;20022;-60
2023/04/25 20:41:57;;;;;;;2.45;1.40;;;;;;;;;;10364338;28;20029;-58
2023/04/25 20:46:57;;;;;;;6.07;1.75;;;;;;;;;;10359244;28;20073;-57
2023/04/25 20:51:58;;;;;;;3.85;1.42;;;;;;;;;;10363235;28;20090;-57
2023/04/25 20:57:00;;;;;;;3.97;1.73;;;;;;;;;;10358770;28;20022;-58
2023/04/25 21:02:01;;;;;;;2.05;1.30;;;;;;;;;;10354716;28;20370;-58
2023/04/25 21:07:02;;;;;;;2.28;1.48;;;;;;;;;;10357633;28;20022;-57
2023/04/25 21:12:03;;;;;;;4.53;1.20;;;;;;;;;;10371341;28;20034;-57
2023/04/25 21:17:04;;;;;;;2.60;1.42;;;;;;;;;;10373157;28;20057;-57
2023/04/25 21:22:05;;;;;;;2.13;1.30;;;;;;;;;;10365594;28;20515;-57
2023/04/25 21:27:06;;;;;;;1.38;1.27;;;;;;;;;;10367316;28;20110;-56
2023/04/25 21:32:07;;;;;;;5.57;1.25;;;;;;;;;;10362027;28;20447;-56
2023/04/25 21:37:08;;;;;;;2.10;1.42;;;;;;;;;;10362218;28;20040;-57
2023/04/25 21:42:09;;;;;;;2.70;1.27;;;;;;;;;;10361398;28;20038;-57
2023/04/25 21:47:10;;;;;;;4.63;1.33;;;;;;;;;;10370543;28;20138;-57
2023/04/25 21:52:11;;;;;;;1.75;1.23;;;;;;;;;;10367802;28;20588;-57
2023/04/25 21:57:11;;;;;;;1.90;1.20;;;;;;;;;;10359123;28;20470;-57
2023/04/25 22:02:12;;;;;;;2.33;1.40;;;;;;;;;;10362391;28;20030;-61
2023/04/25 22:07:13;;;;;;;2.83;1.23;;;;;;;;;;10352609;28;20030;-61
2023/04/25 22:12:14;;;;;;;4.70;1.25;;;;;;;;;;10372216;28;20026;-58
2023/04/25 22:17:18;;;;;;;4.57;1.27;;;;;;;;;;10368092;28;20045;-61
2023/04/25 22:22:18;;;;;;;1.30;1.20;;;;;;;;;;10370833;28;20045;-61
2023/04/25 22:27:19;;;;;;;1.40;1.30;;;;;;;;;;10364975;28;20022;-58
2023/04/25 22:32:20;;;;;;;1.60;1.10;;;;;;;;;;10368448;28;20037;-58
2023/04/25 22:37:20;;;;;;;1.67;1.13;;;;;;;;;;10368934;28;20050;-60
2023/04/25 22:42:21;;;;;;;1.77;1.35;;;;;;;;;;10356377;28;20084;-58
2023/04/25 22:47:23;;;;;;;3.25;1.20;;;;;;;;;;10368212;28;20121;-59
2023/04/25 22:52:24;;;;;;;1.63;1.17;;;;;;;;;;10367608;28;20104;-58
2023/04/25 22:57:24;;;;;;;1.70;1.40;;;;;;;;;;10369541;28;20477;-58
2023/04/25 23:02:25;;;;;;;1.50;1.27;;;;;;;;;;10367057;28;20022;-58
2023/04/25 23:07:27;;;;;;;1.20;1.10;;;;;;;;;;10358935;28;20033;-58
2023/04/25 23:12:28;;;;;;;1.88;1.40;;;;;;;;;;10359660;28;20048;-57
2023/04/25 23:17:29;;;;;;;2.42;1.40;;;;;;;;;;10365457;28;20037;-58
2023/04/25 23:22:29;;;;;;;1.35;1.20;;;;;;;;;;10367285;28;20026;-62
2023/04/25 23:27:30;;;;;;;1.45;1.17;;;;;;;;;;10365544;28;20288;-62
2023/04/25 23:32:31;;;;;;;1.60;1.10;;;;;;;;;;10361048;28;20168;-60
2023/04/25 23:37:36;;;;;;;2.05;1.30;;;;;;;;;;10366612;28;20037;-58
2023/04/25 23:42:38;;;;;;;6.60;1.33;;;;;;;;;;10364567;28;20400;-59
2023/04/25 23:47:39;;;;;;;1.42;1.13;;;;;;;;;;10365448;28;20165;-58
2023/04/25 23:52:39;;;;;;;2.35;1.25;;;;;;;;;;10364347;28;20046;-59
2023/04/25 23:57:43;;;;;;;1.48;1.08;;;;;;;;;;10349380;28;20252;-59
